createdAt,value
2022-08-16T00:01:34.008Z,100539.16
2022-08-16T00:04:05.277Z,100543.84
2022-08-16T00:06:33.945Z,100546.84
2022-08-16T00:09:05.388Z,100549.81
2022-08-16T00:11:34.719Z,100551.47
2022-08-16T00:14:08.715Z,100557.28
2022-08-16T00:17:06.638Z,100550.41
2022-08-16T00:19:41.766Z,100547.66
2022-08-16T00:22:13.527Z,100554.78
2022-08-16T00:24:44.743Z,100549.53
2022-08-16T00:27:15.508Z,100547.84
2022-08-16T00:29:47.474Z,100547.84
2022-08-16T00:32:18.203Z,100551.69
2022-08-16T00:34:53.262Z,100547.53
2022-08-16T00:37:25.146Z,100542.28
2022-08-16T00:40:33.726Z,100541.47
2022-08-16T00:43:11.679Z,100546.41
2022-08-16T00:45:58.384Z,100552.47
2022-08-16T00:48:44.000Z,100557.41
2022-08-16T00:51:16.219Z,100550.78
2022-08-16T00:53:46.973Z,100549.13
2022-08-16T00:56:58.504Z,100553.22
2022-08-16T00:59:16.370Z,100558.50
2022-08-16T01:01:46.585Z,100553.28
2022-08-16T01:04:28.909Z,100551.06
2022-08-16T01:07:01.792Z,100560.13
2022-08-16T01:09:33.465Z,100554.94
2022-08-16T01:12:04.846Z,100557.63
2022-08-16T01:14:45.202Z,100563.41
2022-08-16T01:17:20.251Z,100567.53
2022-08-16T01:19:57.310Z,100564.78
2022-08-16T01:22:59.279Z,100572.72
2022-08-16T01:25:36.289Z,100567.44
2022-08-16T01:28:09.518Z,100564.09
2022-08-16T01:30:49.540Z,100567.38
2022-08-16T01:33:22.445Z,100570.69
2022-08-16T01:35:57.606Z,100577.25
2022-08-16T01:38:30.861Z,100570.91
2022-08-16T01:41:06.479Z,100572.25
2022-08-16T01:43:38.439Z,100574.50
2022-08-16T01:46:30.011Z,100575.03
2022-08-16T01:49:06.018Z,100578.03
2022-08-16T01:51:39.401Z,100576.03
2022-08-16T01:54:09.564Z,100569.47
2022-08-16T01:56:51.791Z,100576.31
2022-08-16T01:59:24.755Z,100577.34
2022-08-16T02:01:59.703Z,100572.94
2022-08-16T02:04:48.100Z,100571.00
2022-08-16T02:07:23.724Z,100574.03
2022-08-16T02:09:59.040Z,100576.47
2022-08-16T02:12:49.333Z,100577.31
2022-08-16T02:15:25.400Z,100577.03
2022-08-16T02:17:56.278Z,100584.16
2022-08-16T02:20:26.353Z,100571.81
2022-08-16T02:22:56.742Z,100583.13
2022-08-16T02:25:52.077Z,100578.69
2022-08-16T02:28:19.321Z,100570.41
2022-08-16T02:30:51.773Z,100576.41
2022-08-16T02:33:24.960Z,100581.34
2022-08-16T02:36:47.335Z,100590.09
2022-08-16T02:39:03.624Z,100585.63
2022-08-16T02:41:37.415Z,100578.72
2022-08-16T02:44:13.926Z,100578.72
2022-08-16T02:46:49.816Z,100582.31
2022-08-16T02:49:20.799Z,100584.22
2022-08-16T02:51:50.219Z,100583.09
2022-08-16T02:54:19.134Z,100587.75
2022-08-16T02:56:52.689Z,100586.34
2022-08-16T02:59:23.954Z,100583.88
2022-08-16T03:01:52.455Z,100588.56
2022-08-16T03:04:50.301Z,100596.19
2022-08-16T03:07:17.431Z,100599.94
2022-08-16T03:10:00.655Z,100593.63
2022-08-16T03:12:36.797Z,100596.88
2022-08-16T03:15:10.469Z,100595.47
2022-08-16T03:17:53.843Z,100592.72
2022-08-16T03:20:32.207Z,100589.66
2022-08-16T03:23:02.173Z,100601.72
2022-08-16T03:25:40.948Z,100606.94
2022-08-16T03:28:16.996Z,100600.59
2022-08-16T03:30:48.697Z,100599.78
2022-08-16T03:33:18.436Z,100602.22
2022-08-16T03:36:29.787Z,100600.03
2022-08-16T03:38:53.280Z,100602.34
2022-08-16T03:41:25.092Z,100604.31
2022-08-16T03:43:57.531Z,100597.78
2022-08-16T03:46:47.799Z,100601.03
2022-08-16T03:49:36.560Z,100597.72
2022-08-16T03:52:08.729Z,100604.09
2022-08-16T03:54:38.822Z,100608.19
2022-08-16T03:57:22.465Z,100603.78
2022-08-16T03:59:53.008Z,100601.34
2022-08-16T04:02:31.704Z,100601.16
2022-08-16T04:05:03.918Z,100606.94
2022-08-16T04:07:34.003Z,100609.88
2022-08-16T04:10:27.984Z,100607.19
2022-08-16T04:12:59.430Z,100603.03
2022-08-16T04:15:31.451Z,100609.22
2022-08-16T04:18:30.968Z,100600.34
2022-08-16T04:21:00.676Z,100604.50
2022-08-16T04:23:33.367Z,100609.38
2022-08-16T04:26:02.298Z,100612.25
2022-08-16T04:28:55.654Z,100613.69
2022-08-16T04:31:23.803Z,100610.34
2022-08-16T04:33:59.499Z,100612.50
2022-08-16T04:36:29.117Z,100610.66
2022-08-16T04:38:57.917Z,100614.00
2022-08-16T04:41:32.928Z,100612.25
2022-08-16T04:44:32.589Z,100617.16
2022-08-16T04:47:02.480Z,100619.59
2022-08-16T04:49:43.791Z,100621.59
2022-08-16T04:52:33.518Z,100615.25
2022-08-16T04:55:08.332Z,100610.34
2022-08-16T04:57:41.352Z,100619.72
2022-08-16T05:00:31.111Z,100622.00
2022-08-16T05:03:09.457Z,100623.56
2022-08-16T05:05:59.546Z,100615.50
2022-08-16T05:08:32.389Z,100617.78
2022-08-16T05:11:08.537Z,100612.94
2022-08-16T05:13:42.329Z,100603.69
2022-08-16T05:16:21.471Z,100608.66
2022-08-16T05:18:56.646Z,100605.72
2022-08-16T05:21:35.764Z,100603.00
2022-08-16T05:24:09.931Z,100606.59
2022-08-16T05:26:43.476Z,100604.97
2022-08-16T05:29:20.736Z,100608.34
2022-08-16T05:32:32.937Z,100617.69
2022-08-16T05:34:55.483Z,100607.81
2022-08-16T05:37:25.932Z,100612.19
2022-08-16T05:39:57.667Z,100617.50
2022-08-16T05:42:35.890Z,100614.78
2022-08-16T05:45:07.321Z,100610.75
2022-08-16T05:47:43.368Z,100614.75
2022-08-16T05:50:19.089Z,100614.81
2022-08-16T05:52:51.223Z,100611.28
2022-08-16T05:55:21.144Z,100611.66
2022-08-16T05:57:52.558Z,100615.00
2022-08-16T06:00:22.913Z,100609.53
2022-08-16T06:02:54.739Z,100616.16
2022-08-16T06:05:42.107Z,100615.13
2022-08-16T06:08:32.437Z,100605.00
2022-08-16T06:11:11.024Z,100614.47
2022-08-16T06:13:43.461Z,100614.22
2022-08-16T06:16:18.046Z,100611.53
2022-08-16T06:18:47.928Z,100608.31
2022-08-16T06:21:23.798Z,100607.72
2022-08-16T06:24:00.996Z,100611.88
2022-08-16T06:26:36.753Z,100603.09
2022-08-16T06:29:07.595Z,100608.38
2022-08-16T06:31:46.744Z,100605.97
2022-08-16T06:34:55.754Z,100605.72
2022-08-16T06:37:10.528Z,100608.78
2022-08-16T06:39:46.751Z,100601.69
2022-08-16T06:42:24.296Z,100599.78
2022-08-16T06:45:09.734Z,100597.59
2022-08-16T06:47:52.864Z,100587.16
2022-08-16T06:50:28.812Z,100600.09
2022-08-16T06:53:07.325Z,100597.66
2022-08-16T06:55:43.352Z,100595.16
2022-08-16T06:58:21.879Z,100596.03
2022-08-16T07:00:59.825Z,100596.59
2022-08-16T07:03:32.389Z,100593.31
2022-08-16T07:06:05.737Z,100598.25
2022-08-16T07:08:43.676Z,100581.69
2022-08-16T07:11:13.949Z,100590.81
2022-08-16T07:13:58.807Z,100577.84
2022-08-16T07:16:42.007Z,100595.22
2022-08-16T07:19:11.825Z,100589.94
2022-08-16T07:21:50.965Z,100580.56
2022-08-16T07:24:31.110Z,100585.81
2022-08-16T07:27:12.504Z,100593.25
2022-08-16T07:29:43.294Z,100586.59
2022-08-16T07:32:13.441Z,100583.25
2022-08-16T07:34:48.172Z,100585.16
2022-08-16T07:37:18.723Z,100582.38
2022-08-16T07:40:12.796Z,100587.31
2022-08-16T07:42:46.864Z,100593.63
2022-08-16T07:45:16.960Z,100585.06
2022-08-16T07:47:51.140Z,100587.81
2022-08-16T07:50:55.809Z,100591.91
2022-08-16T07:53:10.083Z,100585.25
2022-08-16T07:55:47.894Z,100580.25
2022-08-16T07:58:34.562Z,100579.63
2022-08-16T08:01:10.538Z,100583.50
2022-08-16T08:03:49.537Z,100589.53
2022-08-16T08:06:25.388Z,100585.09
2022-08-16T08:08:59.205Z,100597.75
2022-08-16T08:11:29.931Z,100586.41
2022-08-16T08:14:06.671Z,100581.13
2022-08-16T08:16:45.597Z,100569.47
2022-08-16T08:19:24.728Z,100579.06
2022-08-16T08:21:59.636Z,100582.34
2022-08-16T08:24:46.631Z,100575.34
2022-08-16T08:27:22.990Z,100566.13
2022-08-16T08:30:49.610Z,100572.72
2022-08-16T08:32:58.280Z,100566.25
2022-08-16T08:35:41.227Z,100577.56
2022-08-16T08:38:11.843Z,100571.97
2022-08-16T08:40:46.003Z,100563.34
2022-08-16T08:43:18.428Z,100569.13
2022-08-16T08:45:59.342Z,100562.94
2022-08-16T08:48:33.648Z,100568.03
2022-08-16T08:51:08.692Z,100561.56
2022-08-16T08:53:46.088Z,100562.81
2022-08-16T08:56:30.147Z,100559.63
2022-08-16T08:59:13.649Z,100553.94
2022-08-16T09:01:57.773Z,100545.25
2022-08-16T09:04:31.471Z,100561.31
2022-08-16T09:07:01.952Z,100567.38
2022-08-16T09:09:34.302Z,100564.63
2022-08-16T09:12:31.140Z,100567.91
2022-08-16T09:15:08.019Z,100566.72
2022-08-16T09:17:51.840Z,100566.19
2022-08-16T09:20:25.721Z,100567.34
2022-08-16T09:22:55.416Z,100563.06
2022-08-16T09:25:43.491Z,100556.06
2022-08-16T09:29:13.576Z,100558.75
2022-08-16T09:31:11.117Z,100555.72
2022-08-16T09:33:42.048Z,100559.09
2022-08-16T09:36:12.138Z,100557.66
2022-08-16T09:39:01.152Z,100555.66
2022-08-16T09:41:29.625Z,100550.25
2022-08-16T09:44:02.181Z,100548.97
2022-08-16T09:46:46.027Z,100543.56
2022-08-16T09:49:20.323Z,100548.97
2022-08-16T09:51:55.563Z,100542.50
2022-08-16T09:54:32.390Z,100547.94
2022-08-16T09:57:01.693Z,100534.31
2022-08-16T09:59:38.789Z,100543.22
2022-08-16T10:02:26.579Z,100537.28
2022-08-16T10:04:58.146Z,100558.63
2022-08-16T10:07:44.351Z,100532.84
2022-08-16T10:10:19.166Z,100538.75
2022-08-16T10:13:16.363Z,100536.09
2022-08-16T10:15:55.130Z,100547.25
2022-08-16T10:19:00.987Z,100548.66
2022-08-16T10:21:20.173Z,100533.19
2022-08-16T10:23:54.926Z,100534.66
2022-08-16T10:27:20.232Z,100534.13
2022-08-16T10:29:20.120Z,100523.22
2022-08-16T10:31:53.748Z,100521.31
2022-08-16T10:34:31.400Z,100537.50
2022-08-16T10:37:03.028Z,100529.63
2022-08-16T10:39:41.440Z,100528.78
2022-08-16T10:42:13.561Z,100524.78
2022-08-16T10:44:53.736Z,100528.03
2022-08-16T10:47:23.884Z,100520.16
2022-08-16T10:49:53.004Z,100519.03
2022-08-16T10:52:24.280Z,100524.78
2022-08-16T10:55:40.319Z,100527.91
2022-08-16T10:57:42.486Z,100520.19
2022-08-16T11:00:21.209Z,100513.41
2022-08-16T11:02:57.559Z,100527.91
2022-08-16T11:08:28.303Z,100516.63
2022-08-16T11:11:12.993Z,100499.25
2022-08-16T11:14:10.885Z,100503.53
2022-08-16T11:19:26.545Z,100496.81
2022-08-16T11:22:38.658Z,100505.50
2022-08-16T11:25:11.805Z,100497.22
2022-08-16T11:27:37.295Z,100497.25
2022-08-16T11:30:12.117Z,100500.13
2022-08-16T11:32:44.477Z,100489.81
2022-08-16T11:35:16.513Z,100497.97
2022-08-16T11:40:44.429Z,100486.22
2022-08-16T11:43:16.739Z,100479.63
2022-08-16T11:45:54.280Z,100493.81
2022-08-16T11:48:24.968Z,100490.22
2022-08-16T11:50:54.179Z,100470.84
2022-08-16T11:53:25.297Z,100491.38
2022-08-16T11:55:56.412Z,100480.66
2022-08-16T11:58:28.259Z,100481.06
2022-08-16T12:00:59.235Z,100470.38
2022-08-16T12:03:34.501Z,100471.50
2022-08-16T12:06:10.954Z,100477.16
2022-08-16T13:11:55.366Z,100427.13
2022-08-16T13:14:31.291Z,100426.59
2022-08-16T13:17:03.164Z,100429.91
2022-08-16T13:20:03.322Z,100424.56
2022-08-16T13:22:22.130Z,100417.66
2022-08-16T13:24:51.302Z,100425.16
2022-08-16T13:27:59.417Z,100420.03
2022-08-16T13:30:36.579Z,100409.31
2022-08-16T13:33:00.438Z,100404.09
2022-08-16T13:35:34.383Z,100408.50
2022-08-16T13:38:03.359Z,100412.72
2022-08-16T13:40:31.946Z,100420.84
2022-08-16T13:43:02.613Z,100409.94
2022-08-16T13:45:36.118Z,100412.19
2022-08-16T13:48:06.707Z,100411.69
2022-08-16T13:50:49.104Z,100398.63
2022-08-16T13:53:24.425Z,100403.16
2022-08-16T13:55:57.923Z,100396.97
2022-08-16T13:58:37.493Z,100392.31
2022-08-16T14:01:21.162Z,100392.31
2022-08-16T14:03:50.234Z,100391.72
2022-08-16T14:06:23.711Z,100395.03
2022-08-16T14:09:06.241Z,100379.16
2022-08-16T14:11:36.003Z,100373.00
2022-08-16T14:14:07.024Z,100382.47
2022-08-16T14:16:39.751Z,100380.09
2022-08-16T14:19:08.283Z,100379.16
2022-08-16T14:21:37.485Z,100368.78
2022-08-16T14:24:07.924Z,100376.72
2022-08-16T14:26:52.736Z,100372.50
2022-08-16T14:29:23.171Z,100368.97
2022-08-16T14:31:53.909Z,100366.53
2022-08-16T14:34:25.601Z,100365.19
2022-08-16T14:36:54.546Z,100374.44
2022-08-16T14:39:23.467Z,100368.97
2022-08-16T14:41:53.584Z,100370.81
2022-08-16T14:44:26.301Z,100376.16
2022-08-16T14:46:56.824Z,100371.28
2022-08-16T14:49:25.505Z,100379.41
2022-08-16T14:51:53.985Z,100370.78
2022-08-16T14:54:27.294Z,100371.06
2022-08-16T14:56:57.246Z,100375.91
2022-08-16T14:59:27.604Z,100379.00
2022-08-16T15:02:00.709Z,100379.00
2022-08-16T15:04:39.668Z,100369.03
2022-08-16T15:07:12.600Z,100371.00
2022-08-16T15:09:44.864Z,100374.22
2022-08-16T15:12:30.998Z,100371.13
2022-08-16T15:15:13.001Z,100370.00
2022-08-16T15:17:56.094Z,100358.28
2022-08-16T15:20:29.253Z,100361.59
2022-08-16T15:23:00.758Z,100350.47
2022-08-16T15:25:32.248Z,100359.69
2022-08-16T15:28:05.401Z,100360.91
2022-08-16T15:30:57.710Z,100351.75
2022-08-16T15:33:27.478Z,100356.56
2022-08-16T15:35:58.279Z,100353.66
2022-08-16T15:38:55.179Z,100358.81
2022-08-16T15:41:36.015Z,100363.09
2022-08-16T15:44:10.580Z,100355.81
2022-08-16T15:46:56.821Z,100361.19
2022-08-16T15:49:37.272Z,100368.38
2022-08-16T15:52:15.034Z,100359.94
2022-08-16T15:54:52.697Z,100358.53
2022-08-16T15:57:23.067Z,100367.13
2022-08-16T15:59:52.857Z,100361.66
2022-08-16T16:02:30.877Z,100362.84
2022-08-16T16:05:02.209Z,100361.59
2022-08-16T16:07:33.766Z,100351.03
2022-08-16T16:10:07.843Z,100355.44
2022-08-16T16:12:53.039Z,100360.75
2022-08-16T16:15:25.385Z,100357.69
2022-08-16T16:17:55.551Z,100356.63
2022-08-16T16:20:27.935Z,100366.00
2022-08-16T16:22:58.456Z,100362.34
2022-08-16T16:25:29.352Z,100358.13
2022-08-16T16:27:59.801Z,100365.63
2022-08-16T16:30:38.158Z,100362.47
2022-08-16T16:33:21.074Z,100356.63
2022-08-16T16:35:55.644Z,100359.94
2022-08-16T16:38:30.892Z,100365.03
2022-08-16T16:41:00.690Z,100363.88
2022-08-16T16:43:31.986Z,100362.78
2022-08-16T16:46:02.632Z,100365.56
2022-08-16T16:48:36.415Z,100361.44
2022-08-16T16:51:10.096Z,100361.38
2022-08-16T16:53:42.277Z,100370.22
2022-08-16T16:56:19.478Z,100369.91
2022-08-16T16:58:57.674Z,100371.25
2022-08-16T17:01:56.592Z,100375.66
2022-08-16T17:04:32.464Z,100371.56
2022-08-16T17:07:02.909Z,100370.72
2022-08-16T17:09:31.671Z,100373.81
2022-08-16T17:12:00.359Z,100379.66
2022-08-16T17:14:33.638Z,100376.59
2022-08-16T17:17:06.987Z,100384.91
2022-08-16T17:19:56.471Z,100386.03
2022-08-16T17:22:32.990Z,100389.63
2022-08-16T17:25:02.010Z,100384.91
2022-08-16T17:27:32.461Z,100390.75
2022-08-16T17:30:03.525Z,100391.00
2022-08-16T17:32:50.121Z,100383.00
2022-08-16T17:35:34.311Z,100386.38
2022-08-16T17:38:06.379Z,100385.34
2022-08-16T17:40:55.793Z,100385.41
2022-08-16T17:43:30.124Z,100378.53
2022-08-16T17:45:59.801Z,100383.53
2022-08-16T17:48:31.203Z,100379.41
2022-08-16T17:51:01.316Z,100374.47
2022-08-16T17:53:30.089Z,100381.97
2022-08-16T17:55:58.560Z,100381.47
2022-08-16T17:58:27.319Z,100382.06
2022-08-16T18:00:57.775Z,100374.31
2022-08-16T18:04:07.036Z,100375.16
2022-08-16T18:06:19.859Z,100372.97
2022-08-16T18:08:51.148Z,100378.22
2022-08-16T18:11:26.175Z,100377.69
2022-08-16T18:13:56.607Z,100376.34
2022-08-16T18:16:25.637Z,100380.25
2022-08-16T18:18:54.204Z,100382.50
2022-08-16T18:21:42.027Z,100380.56
2022-08-16T18:24:12.844Z,100375.28
2022-08-16T18:26:41.321Z,100371.69
2022-08-16T18:29:10.180Z,100378.38
2022-08-16T18:31:39.856Z,100374.78
2022-08-16T18:34:08.343Z,100363.97
2022-08-16T18:36:38.431Z,100367.06
2022-08-16T18:39:07.158Z,100368.19
2022-08-16T18:41:37.391Z,100368.47
2022-08-16T18:44:26.474Z,100366.03
2022-08-16T18:46:57.057Z,100362.19
2022-08-16T18:49:25.602Z,100364.44
2022-08-16T18:51:59.169Z,100370.28
2022-08-16T18:54:29.361Z,100366.13
2022-08-16T18:56:58.513Z,100368.66
2022-08-16T18:59:33.282Z,100365.34
2022-08-16T19:02:04.712Z,100357.94
2022-08-16T19:04:55.122Z,100357.41
2022-08-16T19:07:31.337Z,100353.59
2022-08-16T19:10:02.152Z,100357.75
2022-08-16T19:12:38.723Z,100358.06
2022-08-16T19:15:15.894Z,100350.06
2022-08-16T19:17:45.386Z,100354.53
2022-08-16T19:20:16.387Z,100352.63
2022-08-16T19:23:05.171Z,100358.19
2022-08-16T19:25:46.954Z,100363.22
2022-08-16T19:28:48.931Z,100360.72
2022-08-16T19:31:12.355Z,100358.03
2022-08-16T19:33:53.821Z,100363.34
2022-08-16T19:36:30.476Z,100363.38
2022-08-16T19:39:05.774Z,100359.81
2022-08-16T19:41:36.287Z,100366.75
2022-08-16T19:44:05.546Z,100365.09
2022-08-16T19:46:34.527Z,100360.69
2022-08-16T19:49:03.336Z,100359.31
2022-08-16T19:51:31.866Z,100366.28
2022-08-16T19:54:00.422Z,100363.00
2022-08-16T19:56:30.308Z,100354.75
2022-08-16T20:01:49.377Z,100355.66
2022-08-16T20:04:17.944Z,100364.28
2022-08-16T20:06:47.035Z,100363.81
2022-08-16T20:09:15.982Z,100364.31
2022-08-16T20:11:46.828Z,100353.31
2022-08-16T20:14:24.009Z,100360.25
2022-08-16T20:16:54.377Z,100350.31
2022-08-16T20:19:22.983Z,100355.31
2022-08-16T20:21:51.618Z,100360.91
2022-08-16T20:24:34.182Z,100358.19
2022-08-16T20:27:06.272Z,100360.97
2022-08-16T20:29:35.864Z,100360.50
2022-08-16T20:32:06.482Z,100368.50
2022-08-16T20:34:35.004Z,100366.31
2022-08-16T20:37:05.222Z,100368.81
2022-08-16T20:39:34.153Z,100361.38
2022-08-16T20:42:05.598Z,100363.00
2022-08-16T20:44:35.529Z,100370.78
2022-08-16T20:47:03.969Z,100365.00
2022-08-16T20:49:32.445Z,100369.72
2022-08-16T20:52:01.120Z,100368.91
2022-08-16T20:54:30.292Z,100373.06
2022-08-16T20:56:58.783Z,100368.09
2022-08-16T20:59:27.386Z,100370.34
2022-08-16T21:01:57.445Z,100371.72
2022-08-16T21:04:28.657Z,100362.63
2022-08-16T21:06:58.531Z,100376.19
2022-08-16T21:09:29.038Z,100370.09
2022-08-16T21:12:01.168Z,100365.72
2022-08-16T21:14:30.385Z,100368.47
2022-08-16T21:17:00.232Z,100368.78
2022-08-16T21:19:28.788Z,100362.44
2022-08-16T21:21:57.563Z,100369.66
2022-08-16T21:24:26.485Z,100371.59
2022-08-16T21:26:56.381Z,100377.38
2022-08-16T21:29:31.650Z,100377.44
2022-08-16T21:32:13.667Z,100371.66
2022-08-16T21:34:43.295Z,100368.91
2022-08-16T21:37:12.417Z,100373.88
2022-08-16T21:39:44.871Z,100374.97
2022-08-16T21:42:17.125Z,100374.16
2022-08-16T21:44:46.737Z,100374.16
2022-08-16T21:47:16.642Z,100372.22
2022-08-16T21:49:45.078Z,100371.72
2022-08-16T21:52:26.333Z,100372.53
2022-08-16T21:54:57.665Z,100368.94
2022-08-16T21:57:26.262Z,100372.84
2022-08-16T21:59:56.572Z,100368.41
2022-08-16T22:02:35.633Z,100371.72
2022-08-16T22:05:07.784Z,100364.00
2022-08-16T22:07:36.319Z,100367.28
2022-08-16T22:11:04.726Z,100359.31
2022-08-16T22:12:55.297Z,100357.63
2022-08-16T22:15:25.939Z,100353.78
2022-08-16T22:17:58.082Z,100355.72
2022-08-16T22:20:28.362Z,100358.53
2022-08-16T22:23:07.593Z,100356.59
2022-08-16T22:25:36.632Z,100361.34
2022-08-16T22:28:06.356Z,100363.00
2022-08-16T22:30:34.805Z,100354.72
2022-08-16T22:33:09.634Z,100354.75
2022-08-16T22:35:43.018Z,100359.19
2022-08-16T22:38:56.717Z,100363.03
2022-08-16T22:41:01.009Z,100362.50
2022-08-16T22:43:30.801Z,100367.16
2022-08-16T22:45:59.460Z,100359.72
2022-08-16T22:48:29.982Z,100366.34
2022-08-16T22:50:58.527Z,100373.28
2022-08-16T22:53:27.887Z,100377.13
2022-08-16T22:55:57.176Z,100363.88
2022-08-16T22:58:34.183Z,100375.50
2022-08-16T23:01:06.165Z,100378.84
2022-08-16T23:03:36.520Z,100380.22
2022-08-16T23:06:05.930Z,100371.38
2022-08-16T23:08:39.602Z,100370.03
2022-08-16T23:11:10.650Z,100379.38
2022-08-16T23:13:52.661Z,100376.91
2022-08-16T23:16:32.333Z,100383.28
2022-08-16T23:19:03.427Z,100379.97
2022-08-16T23:21:32.354Z,100375.84
2022-08-16T23:24:01.008Z,100378.03
2022-08-16T23:26:36.555Z,100376.94
2022-08-16T23:29:23.864Z,100381.91
2022-08-16T23:31:58.324Z,100383.56
2022-08-16T23:34:29.778Z,100379.72
2022-08-16T23:36:58.511Z,100376.69
2022-08-16T23:39:27.156Z,100372.84
2022-08-16T23:41:55.761Z,100375.31
2022-08-16T23:44:55.698Z,100378.09
2022-08-16T23:47:12.591Z,100372.00
2022-08-16T23:49:59.855Z,100384.41
2022-08-16T23:52:45.285Z,100381.38
2022-08-16T23:55:21.379Z,100377.53
2022-08-16T23:57:50.240Z,100370.09
